sensor_id;sensor_type;location;lat;lon;timestamp;pressure;altitude;pressure_sealevel;temperature;humidity
22830;BME280;11581;51.250;6.778;2023-08-20T00:00:54;101589.47;;;24.08;65.38
22830;BME280;11581;51.250;6.778;2023-08-20T00:05:48;101590.53;;;24.07;65.09
22830;BME280;11581;51.250;6.778;2023-08-20T00:08:15;101590.97;;;24.03;65.09
22830;BME280;11581;51.250;6.778;2023-08-20T00:10:42;101583.84;;;24.02;65.10
22830;BME280;11581;51.250;6.778;2023-08-20T00:13:10;101589.72;;;23.99;65.54
22830;BME280;11581;51.250;6.778;2023-08-20T00:15:37;101581.53;;;23.93;65.23
22830;BME280;11581;51.250;6.778;2023-08-20T00:18:04;101592.88;;;23.96;65.76
22830;BME280;11581;51.250;6.778;2023-08-20T00:20:31;101600.41;;;23.94;65.47
22830;BME280;11581;51.250;6.778;2023-08-20T00:22:59;101599.78;;;23.92;65.58
22830;BME280;11581;51.250;6.778;2023-08-20T00:25:26;101542.06;;;23.58;65.67
22830;BME280;11581;51.250;6.778;2023-08-20T00:27:53;101598.53;;;23.88;65.82
22830;BME280;11581;51.250;6.778;2023-08-20T00:30:21;101588.66;;;23.87;66.16
22830;BME280;11581;51.250;6.778;2023-08-20T00:32:48;101587.00;;;23.86;65.96
22830;BME280;11581;51.250;6.778;2023-08-20T00:35:14;101585.13;;;23.87;65.75
22830;BME280;11581;51.250;6.778;2023-08-20T00:37:41;101578.00;;;23.86;66.01
22830;BME280;11581;51.250;6.778;2023-08-20T00:40:10;101588.66;;;23.87;66.16
22830;BME280;11581;51.250;6.778;2023-08-20T00:42:37;101594.13;;;23.87;66.25
22830;BME280;11581;51.250;6.778;2023-08-20T00:45:07;101585.94;;;23.87;66.35
22830;BME280;11581;51.250;6.778;2023-08-20T00:47:36;101575.91;;;23.88;66.43
22830;BME280;11581;51.250;6.778;2023-08-20T00:50:06;101582.19;;;23.88;66.17
22830;BME280;11581;51.250;6.778;2023-08-20T00:52:33;101578.84;;;23.86;66.33
22830;BME280;11581;51.250;6.778;2023-08-20T00:55:07;101570.47;;;23.81;67.43
22830;BME280;11581;51.250;6.778;2023-08-20T00:57:35;101568.38;;;23.83;66.23
22830;BME280;11581;51.250;6.778;2023-08-20T01:00:04;101582.41;;;23.80;67.02
22830;BME280;11581;51.250;6.778;2023-08-20T01:02:38;101585.56;;;23.77;67.24
22830;BME280;11581;51.250;6.778;2023-08-20T01:05:07;101586.84;;;23.75;67.54
22830;BME280;11581;51.250;6.778;2023-08-20T01:07:42;101577.84;;;23.68;68.27
22830;BME280;11581;51.250;6.778;2023-08-20T01:10:14;101595.22;;;23.73;68.00
22830;BME280;11581;51.250;6.778;2023-08-20T01:12:45;101578.03;;;23.73;67.76
22830;BME280;11581;51.250;6.778;2023-08-20T01:15:12;101574.69;;;23.71;67.46
22830;BME280;11581;51.250;6.778;2023-08-20T01:17:42;101573.84;;;23.70;67.99
22830;BME280;11581;51.250;6.778;2023-08-20T01:20:12;101584.13;;;23.68;68.07
22830;BME280;11581;51.250;6.778;2023-08-20T01:22:58;101541.03;;;23.39;69.41
22830;BME280;11581;51.250;6.778;2023-08-20T01:25:33;101521.56;;;23.29;69.34
22830;BME280;11581;51.250;6.778;2023-08-20T01:28:22;101588.94;;;23.66;69.56
22830;BME280;11581;51.250;6.778;2023-08-20T01:30:49;101421.19;;;22.69;68.16
22830;BME280;11581;51.250;6.778;2023-08-20T01:33:18;101576.41;;;23.59;68.12
22830;BME280;11581;51.250;6.778;2023-08-20T01:35:45;101588.31;;;23.64;68.42
22830;BME280;11581;51.250;6.778;2023-08-20T01:38:15;101583.94;;;23.63;68.37
22830;BME280;11581;51.250;6.778;2023-08-20T01:40:42;101599.63;;;23.61;68.29
22830;BME280;11581;51.250;6.778;2023-08-20T01:43:08;101596.91;;;23.61;68.32
22830;BME280;11581;51.250;6.778;2023-08-20T01:45:36;101600.69;;;23.60;68.66
22830;BME280;11581;51.250;6.778;2023-08-20T01:48:04;101598.19;;;23.59;68.51
22830;BME280;11581;51.250;6.778;2023-08-20T01:50:30;101591.88;;;23.58;68.64
22830;BME280;11581;51.250;6.778;2023-08-20T01:52:57;101451.28;;;22.74;68.51
22830;BME280;11581;51.250;6.778;2023-08-20T01:55:24;101595.66;;;23.57;68.58
22830;BME280;11581;51.250;6.778;2023-08-20T01:57:50;101605.72;;;23.57;68.65
22830;BME280;11581;51.250;6.778;2023-08-20T02:00:17;101607.63;;;23.56;68.76
22830;BME280;11581;51.250;6.778;2023-08-20T02:02:45;101582.72;;;23.40;69.29
22830;BME280;11581;51.250;6.778;2023-08-20T02:05:11;101590.84;;;23.46;69.34
22830;BME280;11581;51.250;6.778;2023-08-20T02:07:38;101609.28;;;23.57;69.20
22830;BME280;11581;51.250;6.778;2023-08-20T02:10:05;101609.91;;;23.59;69.41
22830;BME280;11581;51.250;6.778;2023-08-20T02:12:32;101610.53;;;23.61;69.38
22830;BME280;11581;51.250;6.778;2023-08-20T02:14:59;101612.19;;;23.62;69.29
22830;BME280;11581;51.250;6.778;2023-08-20T02:17:26;101616.41;;;23.65;69.36
22830;BME280;11581;51.250;6.778;2023-08-20T02:19:53;101626.03;;;23.67;69.16
22830;BME280;11581;51.250;6.778;2023-08-20T02:22:20;101620.38;;;23.69;69.18
22830;BME280;11581;51.250;6.778;2023-08-20T02:24:47;101627.47;;;23.70;69.07
22830;BME280;11581;51.250;6.778;2023-08-20T02:27:15;101608.66;;;23.55;68.97
22830;BME280;11581;51.250;6.778;2023-08-20T02:29:43;101631.69;;;23.72;68.85
22830;BME280;11581;51.250;6.778;2023-08-20T02:32:13;101646.97;;;23.73;69.06
22830;BME280;11581;51.250;6.778;2023-08-20T02:34:40;101649.69;;;23.73;69.36
22830;BME280;11581;51.250;6.778;2023-08-20T02:37:08;101654.06;;;23.74;69.66
22830;BME280;11581;51.250;6.778;2023-08-20T02:39:34;101665.59;;;23.76;69.65
22830;BME280;11581;51.250;6.778;2023-08-20T02:42:01;101657.22;;;23.78;69.83
22830;BME280;11581;51.250;6.778;2023-08-20T02:44:28;101652.59;;;23.78;69.59
22830;BME280;11581;51.250;6.778;2023-08-20T02:46:54;101648.84;;;23.79;69.60
22830;BME280;11581;51.250;6.778;2023-08-20T02:49:23;101554.66;;;23.26;69.00
22830;BME280;11581;51.250;6.778;2023-08-20T02:51:49;101649.22;;;23.83;69.11
22830;BME280;11581;51.250;6.778;2023-08-20T02:54:17;101659.31;;;23.82;68.68
22830;BME280;11581;51.250;6.778;2023-08-20T02:56:44;101656.59;;;23.82;68.34
22830;BME280;11581;51.250;6.778;2023-08-20T02:59:11;101656.16;;;23.79;68.25
22830;BME280;11581;51.250;6.778;2023-08-20T03:01:37;101654.72;;;23.76;67.82
22830;BME280;11581;51.250;6.778;2023-08-20T03:04:05;101654.28;;;23.73;67.78
22830;BME280;11581;51.250;6.778;2023-08-20T03:06:32;101663.94;;;23.69;68.00
22830;BME280;11581;51.250;6.778;2023-08-20T03:08:58;101658.06;;;23.65;67.85
22830;BME280;11581;51.250;6.778;2023-08-20T03:11:26;101664.13;;;23.61;67.81
22830;BME280;11581;51.250;6.778;2023-08-20T03:13:53;101670.25;;;23.56;67.70
22830;BME280;11581;51.250;6.778;2023-08-20T03:16:19;101643.84;;;23.31;67.88
22830;BME280;11581;51.250;6.778;2023-08-20T03:18:46;101661.41;;;23.48;68.06
22830;BME280;11581;51.250;6.778;2023-08-20T03:21:13;101668.13;;;23.45;68.00
22830;BME280;11581;51.250;6.778;2023-08-20T03:23:39;101674.00;;;23.42;67.97
22830;BME280;11581;51.250;6.778;2023-08-20T03:26:06;101678.81;;;23.40;68.15
22830;BME280;11581;51.250;6.778;2023-08-20T03:28:34;101667.28;;;23.38;68.35
22830;BME280;11581;51.250;6.778;2023-08-20T03:31:01;101641.50;;;23.08;68.19
22830;BME280;11581;51.250;6.778;2023-08-20T03:33:30;101670.03;;;23.38;68.20
22830;BME280;11581;51.250;6.778;2023-08-20T03:35:57;101673.59;;;23.39;68.25
22830;BME280;11581;51.250;6.778;2023-08-20T03:38:24;101670.88;;;23.39;68.15
22830;BME280;11581;51.250;6.778;2023-08-20T03:40:54;101681.75;;;23.39;68.39
22830;BME280;11581;51.250;6.778;2023-08-20T03:43:21;101668.97;;;23.39;68.30
22830;BME280;11581;51.250;6.778;2023-08-20T03:45:50;101670.66;;;23.40;68.50
22830;BME280;11581;51.250;6.778;2023-08-20T03:48:18;101673.38;;;23.40;68.18
22830;BME280;11581;51.250;6.778;2023-08-20T03:50:45;101667.09;;;23.40;67.99
22830;BME280;11581;51.250;6.778;2023-08-20T03:53:12;101679.84;;;23.39;67.99
22830;BME280;11581;51.250;6.778;2023-08-20T03:55:39;101683.63;;;23.38;68.08
22830;BME280;11581;51.250;6.778;2023-08-20T03:58:05;101682.16;;;23.36;68.24
22830;BME280;11581;51.250;6.778;2023-08-20T04:00:34;101672.31;;;23.28;67.91
22830;BME280;11581;51.250;6.778;2023-08-20T04:03:03;101668.53;;;23.29;68.31
22830;BME280;11581;51.250;6.778;2023-08-20T04:05:35;101627.47;;;22.98;68.90
22830;BME280;11581;51.250;6.778;2023-08-20T04:08:03;101678.19;;;23.25;68.19
22830;BME280;11581;51.250;6.778;2023-08-20T04:10:29;101684.00;;;23.22;68.29
22830;BME280;11581;51.250;6.778;2023-08-20T04:12:57;101683.56;;;23.19;68.10
22830;BME280;11581;51.250;6.778;2023-08-20T04:15:24;101684.81;;;23.16;67.91
22830;BME280;11581;51.250;6.778;2023-08-20T04:17:50;101685.25;;;23.13;67.96
22830;BME280;11581;51.250;6.778;2023-08-20T04:20:18;101694.66;;;23.11;68.30
22830;BME280;11581;51.250;6.778;2023-08-20T04:22:46;101687.97;;;23.07;68.38
22830;BME280;11581;51.250;6.778;2023-08-20T04:25:13;101691.91;;;23.04;68.33
22830;BME280;11581;51.250;6.778;2023-08-20T04:27:39;101693.16;;;23.02;68.51
22830;BME280;11581;51.250;6.778;2023-08-20T04:30:07;101694.44;;;22.99;68.57
22830;BME280;11581;51.250;6.778;2023-08-20T04:32:34;101689.16;;;22.91;68.52
22830;BME280;11581;51.250;6.778;2023-08-20T04:35:01;101691.47;;;22.94;68.64
22830;BME280;11581;51.250;6.778;2023-08-20T04:37:29;101693.59;;;22.92;69.13
22830;BME280;11581;51.250;6.778;2023-08-20T04:39:57;101695.66;;;22.90;68.85
22830;BME280;11581;51.250;6.778;2023-08-20T04:42:23;101700.69;;;22.87;69.12
22830;BME280;11581;51.250;6.778;2023-08-20T04:44:50;101699.84;;;22.86;69.20
22830;BME280;11581;51.250;6.778;2023-08-20T04:47:18;101621.38;;;22.30;69.25
22830;BME280;11581;51.250;6.778;2023-08-20T04:49:45;101696.47;;;22.84;69.38
22830;BME280;11581;51.250;6.778;2023-08-20T04:52:12;101698.56;;;22.82;69.46
22830;BME280;11581;51.250;6.778;2023-08-20T04:54:41;101702.97;;;22.83;69.71
22830;BME280;11581;51.250;6.778;2023-08-20T04:57:08;101701.91;;;22.84;69.37
22830;BME280;11581;51.250;6.778;2023-08-20T04:59:34;101699.19;;;22.84;69.37
22830;BME280;11581;51.250;6.778;2023-08-20T05:02:01;101703.59;;;22.85;69.41
22830;BME280;11581;51.250;6.778;2023-08-20T05:04:40;101628.75;;;22.42;69.68
22830;BME280;11581;51.250;6.778;2023-08-20T05:07:07;101715.97;;;22.94;69.96
22830;BME280;11581;51.250;6.778;2023-08-20T05:09:34;101690.81;;;22.86;70.39
22830;BME280;11581;51.250;6.778;2023-08-20T05:12:02;101711.19;;;23.09;70.43
22830;BME280;11581;51.250;6.778;2023-08-20T05:14:29;101713.94;;;23.22;70.43
22830;BME280;11581;51.250;6.778;2023-08-20T05:16:56;101711.69;;;23.32;69.86
22830;BME280;11581;51.250;6.778;2023-08-20T05:19:23;101713.34;;;23.46;69.61
22830;BME280;11581;51.250;6.778;2023-08-20T05:21:50;101715.47;;;23.57;69.22
22830;BME280;11581;51.250;6.778;2023-08-20T05:24:17;101707.50;;;23.69;69.55
22830;BME280;11581;51.250;6.778;2023-08-20T05:26:44;101702.91;;;23.82;69.60
22830;BME280;11581;51.250;6.778;2023-08-20T05:29:12;101712.13;;;24.01;69.55
22830;BME280;11581;51.250;6.778;2023-08-20T05:31:38;101717.94;;;24.24;69.94
22830;BME280;11581;51.250;6.778;2023-08-20T05:34:05;101709.03;;;24.55;69.99
22830;BME280;11581;51.250;6.778;2023-08-20T05:36:32;101712.69;;;24.86;69.26
22830;BME280;11581;51.250;6.778;2023-08-20T05:38:59;101708.72;;;25.20;67.98
22830;BME280;11581;51.250;6.778;2023-08-20T05:41:26;101717.53;;;25.53;66.91
22830;BME280;11581;51.250;6.778;2023-08-20T05:43:52;101714.75;;;25.84;65.77
22830;BME280;11581;51.250;6.778;2023-08-20T05:46:20;101716.56;;;26.15;64.90
22830;BME280;11581;51.250;6.778;2023-08-20T05:48:47;101711.34;;;26.49;64.77
22830;BME280;11581;51.250;6.778;2023-08-20T05:51:14;101717.41;;;26.87;64.54
22830;BME280;11581;51.250;6.778;2023-08-20T05:53:40;101712.81;;;27.29;63.90
22830;BME280;11581;51.250;6.778;2023-08-20T05:56:07;101680.84;;;27.52;62.82
22830;BME280;11581;51.250;6.778;2023-08-20T05:58:33;101716.03;;;28.25;61.88
22830;BME280;11581;51.250;6.778;2023-08-20T06:01:00;101711.75;;;28.80;60.56
22830;BME280;11581;51.250;6.778;2023-08-20T06:03:29;101668.56;;;29.03;58.40
22830;BME280;11581;51.250;6.778;2023-08-20T06:05:57;101666.72;;;29.53;56.37
22830;BME280;11581;51.250;6.778;2023-08-20T06:08:24;101719.88;;;30.47;56.59
22830;BME280;11581;51.250;6.778;2023-08-20T06:10:51;101724.16;;;31.02;54.76
22830;BME280;11581;51.250;6.778;2023-08-20T06:13:18;101728.28;;;31.58;53.45
22830;BME280;11581;51.250;6.778;2023-08-20T06:15:44;101736.72;;;32.09;51.74
22830;BME280;11581;51.250;6.778;2023-08-20T06:18:11;101728.19;;;32.58;50.74
22830;BME280;11581;51.250;6.778;2023-08-20T06:20:39;101726.72;;;33.02;48.33
22830;BME280;11581;51.250;6.778;2023-08-20T06:23:07;101708.53;;;33.31;48.19
22830;BME280;11581;51.250;6.778;2023-08-20T06:25:33;101736.25;;;33.86;47.39
22830;BME280;11581;51.250;6.778;2023-08-20T06:28:00;101727.59;;;34.28;46.69
22830;BME280;11581;51.250;6.778;2023-08-20T06:30:26;101729.66;;;34.71;45.29
22830;BME280;11581;51.250;6.778;2023-08-20T06:32:53;101730.56;;;35.15;44.15
22830;BME280;11581;51.250;6.778;2023-08-20T06:35:20;101728.06;;;35.57;43.63
22830;BME280;11581;51.250;6.778;2023-08-20T06:37:48;101732.16;;;35.98;41.19
22830;BME280;11581;51.250;6.778;2023-08-20T06:40:14;101738.66;;;36.41;41.29
22830;BME280;11581;51.250;6.778;2023-08-20T06:42:41;101731.00;;;36.80;40.79
22830;BME280;11581;51.250;6.778;2023-08-20T06:45:08;101735.69;;;37.21;39.61
22830;BME280;11581;51.250;6.778;2023-08-20T06:47:35;101739.78;;;37.61;39.17
22830;BME280;11581;51.250;6.778;2023-08-20T06:50:02;101740.19;;;37.86;38.06
22830;BME280;11581;51.250;6.778;2023-08-20T06:52:28;101751.34;;;38.32;37.28
22830;BME280;11581;51.250;6.778;2023-08-20T06:54:56;101748.47;;;38.64;36.21
22830;BME280;11581;51.250;6.778;2023-08-20T06:57:23;101738.22;;;38.87;36.58
22830;BME280;11581;51.250;6.778;2023-08-20T06:59:50;101754.16;;;39.22;35.79
22830;BME280;11581;51.250;6.778;2023-08-20T07:02:20;101642.69;;;38.95;33.72
22830;BME280;11581;51.250;6.778;2023-08-20T07:04:47;101749.81;;;39.87;34.71
22830;BME280;11581;51.250;6.778;2023-08-20T07:07:14;101747.84;;;40.18;34.39
22830;BME280;11581;51.250;6.778;2023-08-20T07:09:41;101745.84;;;40.49;33.33
22830;BME280;11581;51.250;6.778;2023-08-20T07:12:09;101747.47;;;40.81;32.88
22830;BME280;11581;51.250;6.778;2023-08-20T07:14:36;101746.22;;;41.12;32.53
22830;BME280;11581;51.250;6.778;2023-08-20T07:17:03;101746.03;;;41.43;31.74
22830;BME280;11581;51.250;6.778;2023-08-20T07:19:30;101733.19;;;41.67;31.27
22830;BME280;11581;51.250;6.778;2023-08-20T07:21:57;101733.50;;;41.92;31.27
22830;BME280;11581;51.250;6.778;2023-08-20T07:24:23;101747.41;;;42.17;30.39
22830;BME280;11581;51.250;6.778;2023-08-20T07:26:51;101718.22;;;42.35;30.17
22830;BME280;11581;51.250;6.778;2023-08-20T07:29:25;101740.28;;;42.74;29.21
22830;BME280;11581;51.250;6.778;2023-08-20T07:31:55;101745.34;;;43.01;29.17
22830;BME280;11581;51.250;6.778;2023-08-20T07:34:22;101741.66;;;43.30;28.96
22830;BME280;11581;51.250;6.778;2023-08-20T07:36:48;101745.22;;;43.59;28.08
22830;BME280;11581;51.250;6.778;2023-08-20T07:39:15;101742.31;;;43.89;28.07
22830;BME280;11581;51.250;6.778;2023-08-20T07:41:42;101740.00;;;44.15;27.62
22830;BME280;11581;51.250;6.778;2023-08-20T07:44:09;101739.25;;;44.38;27.10
22830;BME280;11581;51.250;6.778;2023-08-20T07:46:37;101738.44;;;44.62;26.48
22830;BME280;11581;51.250;6.778;2023-08-20T07:49:03;101740.97;;;44.91;26.76
22830;BME280;11581;51.250;6.778;2023-08-20T07:51:30;101695.13;;;44.90;26.48
22830;BME280;11581;51.250;6.778;2023-08-20T07:53:56;101615.81;;;44.73;26.09
22830;BME280;11581;51.250;6.778;2023-08-20T07:56:24;101743.19;;;45.77;25.71
22830;BME280;11581;51.250;6.778;2023-08-20T07:58:51;101736.31;;;46.05;25.28
22830;BME280;11581;51.250;6.778;2023-08-20T08:01:18;101739.88;;;46.33;24.58
22830;BME280;11581;51.250;6.778;2023-08-20T08:03:46;101742.50;;;46.57;24.00
22830;BME280;11581;51.250;6.778;2023-08-20T08:06:12;101743.22;;;46.85;24.35
22830;BME280;11581;51.250;6.778;2023-08-20T08:08:42;101688.34;;;46.67;23.01
22830;BME280;11581;51.250;6.778;2023-08-20T08:11:08;101743.72;;;47.25;23.41
22830;BME280;11581;51.250;6.778;2023-08-20T08:13:35;101744.53;;;47.45;23.10
22830;BME280;11581;51.250;6.778;2023-08-20T08:16:02;101741.34;;;47.66;23.24
22830;BME280;11581;51.250;6.778;2023-08-20T08:18:28;101743.38;;;47.88;23.23
22830;BME280;11581;51.250;6.778;2023-08-20T08:20:56;101738.38;;;48.00;22.57
22830;BME280;11581;51.250;6.778;2023-08-20T08:23:23;101736.47;;;48.27;22.59
22830;BME280;11581;51.250;6.778;2023-08-20T08:25:50;101736.69;;;48.41;22.18
22830;BME280;11581;51.250;6.778;2023-08-20T08:28:16;101740.94;;;48.54;21.90
22830;BME280;11581;51.250;6.778;2023-08-20T08:30:43;101636.59;;;48.00;21.79
22830;BME280;11581;51.250;6.778;2023-08-20T08:33:09;101743.69;;;48.73;21.50
22830;BME280;11581;51.250;6.778;2023-08-20T08:35:36;101744.22;;;48.82;21.04
22830;BME280;11581;51.250;6.778;2023-08-20T08:38:04;101739.09;;;48.91;20.69
22830;BME280;11581;51.250;6.778;2023-08-20T08:40:31;101751.31;;;48.95;20.84
22830;BME280;11581;51.250;6.778;2023-08-20T08:42:58;101737.88;;;48.92;20.45
22830;BME280;11581;51.250;6.778;2023-08-20T08:45:26;101741.03;;;48.87;20.58
22830;BME280;11581;51.250;6.778;2023-08-20T08:47:54;101743.00;;;48.83;20.51
22830;BME280;11581;51.250;6.778;2023-08-20T08:50:21;101728.75;;;48.76;20.65
22830;BME280;11581;51.250;6.778;2023-08-20T08:52:50;101741.69;;;48.77;19.96
22830;BME280;11581;51.250;6.778;2023-08-20T08:55:19;101739.75;;;48.81;20.52
22830;BME280;11581;51.250;6.778;2023-08-20T08:57:45;101735.38;;;48.87;20.35
22830;BME280;11581;51.250;6.778;2023-08-20T09:00:13;101730.59;;;48.91;20.23
22830;BME280;11581;51.250;6.778;2023-08-20T09:02:41;101735.25;;;49.06;20.08
22830;BME280;11581;51.250;6.778;2023-08-20T09:05:08;101735.41;;;49.16;19.89
22830;BME280;11581;51.250;6.778;2023-08-20T09:07:42;101742.09;;;49.31;19.65
22830;BME280;11581;51.250;6.778;2023-08-20T09:10:08;101735.00;;;49.48;19.76
22830;BME280;11581;51.250;6.778;2023-08-20T09:12:36;101732.41;;;49.65;19.21
22830;BME280;11581;51.250;6.778;2023-08-20T09:15:09;101740.28;;;49.82;19.11
22830;BME280;11581;51.250;6.778;2023-08-20T09:17:36;101736.06;;;50.06;19.30
22830;BME280;11581;51.250;6.778;2023-08-20T09:20:03;101746.41;;;50.28;18.78
22830;BME280;11581;51.250;6.778;2023-08-20T09:22:30;101733.94;;;50.39;18.38
22830;BME280;11581;51.250;6.778;2023-08-20T09:24:57;101741.38;;;50.58;17.95
22830;BME280;11581;51.250;6.778;2023-08-20T09:27:24;101744.22;;;50.58;17.80
22830;BME280;11581;51.250;6.778;2023-08-20T09:29:53;101740.06;;;50.48;17.31
22830;BME280;11581;51.250;6.778;2023-08-20T09:32:21;101742.47;;;50.39;18.06
22830;BME280;11581;51.250;6.778;2023-08-20T09:34:49;101741.59;;;50.35;17.46
22830;BME280;11581;51.250;6.778;2023-08-20T09:37:18;101747.28;;;50.35;17.31
22830;BME280;11581;51.250;6.778;2023-08-20T09:39:45;101729.00;;;50.29;17.19
22830;BME280;11581;51.250;6.778;2023-08-20T09:42:12;101734.38;;;50.45;17.29
22830;BME280;11581;51.250;6.778;2023-08-20T09:44:40;101736.09;;;50.56;17.34
22830;BME280;11581;51.250;6.778;2023-08-20T09:47:10;101750.00;;;50.72;16.70
22830;BME280;11581;51.250;6.778;2023-08-20T09:49:38;101676.41;;;50.42;16.72
22830;BME280;11581;51.250;6.778;2023-08-20T09:52:06;101747.69;;;50.95;16.30
22830;BME280;11581;51.250;6.778;2023-08-20T09:54:50;101756.59;;;50.93;16.56
22830;BME280;11581;51.250;6.778;2023-08-20T09:57:26;101748.47;;;50.88;16.46
22830;BME280;11581;51.250;6.778;2023-08-20T09:59:57;101754.13;;;50.85;16.79
22830;BME280;11581;51.250;6.778;2023-08-20T10:02:26;101675.16;;;50.36;16.55
22830;BME280;11581;51.250;6.778;2023-08-20T10:04:53;101748.06;;;50.83;16.96
22830;BME280;11581;51.250;6.778;2023-08-20T10:07:20;101751.69;;;50.80;16.51
22830;BME280;11581;51.250;6.778;2023-08-20T10:09:48;101707.72;;;50.56;16.49
22830;BME280;11581;51.250;6.778;2023-08-20T10:12:16;101743.94;;;50.73;16.65
22830;BME280;11581;51.250;6.778;2023-08-20T10:14:43;101747.56;;;50.70;16.16
22830;BME280;11581;51.250;6.778;2023-08-20T10:17:11;101745.44;;;50.60;16.26
22830;BME280;11581;51.250;6.778;2023-08-20T10:19:41;101749.44;;;50.52;16.59
22830;BME280;11581;51.250;6.778;2023-08-20T10:22:09;101714.00;;;50.32;16.75
22830;BME280;11581;51.250;6.778;2023-08-20T10:24:47;101694.28;;;49.99;17.00
22830;BME280;11581;51.250;6.778;2023-08-20T10:27:24;101680.53;;;50.05;16.70
22830;BME280;11581;51.250;6.778;2023-08-20T10:29:53;101743.66;;;50.38;16.94
22830;BME280;11581;51.250;6.778;2023-08-20T10:32:20;101739.53;;;50.32;16.98
22830;BME280;11581;51.250;6.778;2023-08-20T10:34:51;101682.78;;;49.85;16.57
22830;BME280;11581;51.250;6.778;2023-08-20T10:37:26;101740.63;;;50.21;16.80
22830;BME280;11581;51.250;6.778;2023-08-20T10:39:54;101734.53;;;50.15;16.94
22830;BME280;11581;51.250;6.778;2023-08-20T10:42:22;101741.41;;;50.14;16.84
22830;BME280;11581;51.250;6.778;2023-08-20T10:44:57;101740.59;;;50.14;16.37
22830;BME280;11581;51.250;6.778;2023-08-20T10:47:25;101705.09;;;49.90;16.89
22830;BME280;11581;51.250;6.778;2023-08-20T10:49:53;101732.91;;;50.18;16.44
22830;BME280;11581;51.250;6.778;2023-08-20T10:52:20;101741.53;;;50.28;16.58
22830;BME280;11581;51.250;6.778;2023-08-20T10:54:49;101732.69;;;50.37;16.55
22830;BME280;11581;51.250;6.778;2023-08-20T10:57:16;101736.00;;;50.42;16.38
22830;BME280;11581;51.250;6.778;2023-08-20T10:59:56;101741.69;;;50.42;16.43
22830;BME280;11581;51.250;6.778;2023-08-20T11:02:23;101731.50;;;50.41;16.29
22830;BME280;11581;51.250;6.778;2023-08-20T11:04:53;101732.25;;;50.31;16.52
22830;BME280;11581;51.250;6.778;2023-08-20T11:07:20;101732.47;;;50.12;16.70
22830;BME280;11581;51.250;6.778;2023-08-20T11:09:47;101737.38;;;49.79;17.00
22830;BME280;11581;51.250;6.778;2023-08-20T11:12:15;101734.44;;;49.35;17.42
22830;BME280;11581;51.250;6.778;2023-08-20T11:14:41;101727.84;;;48.94;17.76
22830;BME280;11581;51.250;6.778;2023-08-20T11:17:08;101733.00;;;48.63;18.24
22830;BME280;11581;51.250;6.778;2023-08-20T11:19:35;101732.53;;;48.35;17.86
22830;BME280;11581;51.250;6.778;2023-08-20T11:22:03;101740.19;;;48.12;18.21
22830;BME280;11581;51.250;6.778;2023-08-20T11:24:30;101742.34;;;47.96;18.33
22830;BME280;11581;51.250;6.778;2023-08-20T11:26:57;101736.81;;;47.84;18.41
22830;BME280;11581;51.250;6.778;2023-08-20T11:29:25;101666.22;;;47.23;18.66
22830;BME280;11581;51.250;6.778;2023-08-20T11:31:52;101722.53;;;47.35;18.96
22830;BME280;11581;51.250;6.778;2023-08-20T11:34:19;101712.84;;;46.98;18.73
22830;BME280;11581;51.250;6.778;2023-08-20T11:36:46;101723.03;;;46.68;19.39
22830;BME280;11581;51.250;6.778;2023-08-20T11:39:15;101730.25;;;46.19;19.53
22830;BME280;11581;51.250;6.778;2023-08-20T11:41:43;101723.84;;;45.75;20.14
22830;BME280;11581;51.250;6.778;2023-08-20T11:44:19;101718.03;;;45.28;20.57
22830;BME280;11581;51.250;6.778;2023-08-20T11:46:45;101724.81;;;44.88;20.92
22830;BME280;11581;51.250;6.778;2023-08-20T11:49:13;101720.13;;;44.44;21.44
22830;BME280;11581;51.250;6.778;2023-08-20T11:51:40;101712.47;;;43.96;21.52
22830;BME280;11581;51.250;6.778;2023-08-20T11:54:10;101723.00;;;43.54;22.54
22830;BME280;11581;51.250;6.778;2023-08-20T11:56:43;101714.16;;;43.23;22.88
22830;BME280;11581;51.250;6.778;2023-08-20T11:59:10;101719.53;;;43.16;22.76
22830;BME280;11581;51.250;6.778;2023-08-20T12:01:38;101646.13;;;42.85;22.78
22830;BME280;11581;51.250;6.778;2023-08-20T12:04:06;101707.44;;;43.36;23.16
22830;BME280;11581;51.250;6.778;2023-08-20T12:06:34;101702.50;;;43.54;22.33
22830;BME280;11581;51.250;6.778;2023-08-20T12:09:01;101706.81;;;43.84;22.00
22830;BME280;11581;51.250;6.778;2023-08-20T12:11:30;101709.34;;;44.10;22.02
22830;BME280;11581;51.250;6.778;2023-08-20T12:14:00;101705.38;;;44.35;21.94
22830;BME280;11581;51.250;6.778;2023-08-20T12:16:26;101700.44;;;44.56;21.93
22830;BME280;11581;51.250;6.778;2023-08-20T12:18:53;101696.22;;;44.74;21.82
22830;BME280;11581;51.250;6.778;2023-08-20T12:21:19;101682.84;;;44.83;21.40
22830;BME280;11581;51.250;6.778;2023-08-20T12:23:46;101686.69;;;45.02;21.31
22830;BME280;11581;51.250;6.778;2023-08-20T12:26:13;101685.56;;;45.19;21.25
22830;BME280;11581;51.250;6.778;2023-08-20T12:28:39;101692.03;;;45.35;21.21
22830;BME280;11581;51.250;6.778;2023-08-20T12:31:08;101689.75;;;45.52;21.01
22830;BME280;11581;51.250;6.778;2023-08-20T12:33:35;101681.78;;;45.70;20.73
22830;BME280;11581;51.250;6.778;2023-08-20T12:36:02;101682.00;;;45.77;20.21
22830;BME280;11581;51.250;6.778;2023-08-20T12:38:28;101689.88;;;45.72;20.32
22830;BME280;11581;51.250;6.778;2023-08-20T12:40:59;101685.44;;;45.55;20.36
22830;BME280;11581;51.250;6.778;2023-08-20T12:43:26;101685.28;;;45.36;20.50
22830;BME280;11581;51.250;6.778;2023-08-20T12:45:52;101694.34;;;45.17;20.54
22830;BME280;11581;51.250;6.778;2023-08-20T12:48:20;101680.72;;;44.92;20.37
22830;BME280;11581;51.250;6.778;2023-08-20T12:50:47;101681.38;;;44.61;20.45
22830;BME280;11581;51.250;6.778;2023-08-20T12:53:14;101688.28;;;44.28;21.04
22830;BME280;11581;51.250;6.778;2023-08-20T12:55:40;101676.78;;;43.97;21.32